Lifter — V2DD4 — position and weather

sailwx.info

Track history (hours):
 
Tides and Currents Weather Stations Pressure Air Temp Water Temp Dewpoint Dewpoint Depression Visibility Wind Speed Wind Dir Waves Ship Positions

Lifter

Last reported at 2014-Sep-23 03:30 UTC. Time now 2014-Sep-23 06:16 UTC.
Position N 53°55' E 007°52'.

Length 118 m; draft 4.7 m.

Type: Ship. MMSI: 305175000.

Date/timePositionNaut miles runAvg speedWind from/ knotsBaromVisibWave heightAir tempDewpointWater temp
2014-Sep-23 03:30N 53°55' E 007°52'1 1.0
2014-Sep-23 02:33N 53°55' E 007°53'1212.0
2014-Sep-23 01:32N 54°01' E 008°12'1414.2
2014-Sep-23 00:33N 53°58' E 008°35'1211.9
2014-Sep-22 23:34N 53°50' E 008°50'1111.1
2014-Sep-22 22:32N 53°54' E 009°09'2 1.7
2014-Sep-22 21:33N 53°55' E 009°11'9 7.7
2014-Sep-22 20:23N 54°03' E 009°18'66 7.5
2014-Sep-22 11:32N 54°36' E 010°57'1010.6
2014-Sep-22 10:33N 54°35' E 011°15'1110.9
2014-Sep-22 09:33N 54°30' E 011°32'1212.0
2014-Sep-22 08:33N 54°27' E 011°52'1211.5
2014-Sep-22 07:33N 54°29' E 012°11'1313.2
2014-Sep-22 06:33N 54°40' E 012°24'1313.4
2014-Sep-22 05:33N 54°48' E 012°43'1313.2
2014-Sep-22 04:33N 54°52' E 013°05'1312.7
2014-Sep-22 03:33N 54°56' E 013°26'1212.0
2014-Sep-22 02:33N 55°00' E 013°45'2512.5
2014-Sep-22 00:32N 55°15' E 014°21'1313.4
2014-Sep-21 23:33N 55°25' E 014°36'1312.8
2014-Sep-21 22:33N 55°33' E 014°54'2512.5
2014-Sep-21 20:33N 55°45' E 015°33'1412.9
2014-Sep-21 19:27N 55°52' E 015°55'1213.1
2014-Sep-21 18:32N 55°58' E 016°13'1413.2
2014-Sep-21 17:30N 56°05' E 016°34'  
2014-Sep-17 03:33N 57°12' E 019°10'2612.3
2014-Sep-17 01:28N 56°52' E 018°39'1212.4
2014-Sep-17 00:29N 56°44' E 018°22'1212.4
2014-Sep-16 23:30N 56°37' E 018°04'1212.5
2014-Sep-16 22:30N 56°30' E 017°46'2512.4
2014-Sep-16 20:27N 56°14' E 017°09'1112.3
2014-Sep-16 19:33N 56°07' E 016°54'5212.1
2014-Sep-16 15:17N 55°41' E 015°35'912.1
2014-Sep-16 14:32N 55°37' E 015°20'1212.0
2014-Sep-16 13:33N 55°31' E 015°02'1212.2
2014-Sep-16 12:33N 55°25' E 014°43'1212.0
2014-Sep-16 11:34N 55°17' E 014°28'1212.1
2014-Sep-16 10:33N 55°07' E 014°15'1212.0
2014-Sep-16 09:33N 55°00' E 013°58'1212.4
2014-Sep-16 08:33N 54°56' E 013°38'1211.9
2014-Sep-16 07:32N 54°51' E 013°19'1211.9
2014-Sep-16 06:33N 54°47' E 012°60'1211.8
2014-Sep-16 05:33N 54°41' E 012°42'1211.6
2014-Sep-16 04:33N 54°34' E 012°25'1110.7
2014-Sep-16 03:33N 54°26' E 012°13'1010.1
2014-Sep-16 02:33N 54°25' E 011°56'1110.8
2014-Sep-16 01:33N 54°27' E 011°38'1111.0
2014-Sep-16 00:34N 54°32' E 011°21'1010.1
2014-Sep-15 23:33N 54°37' E 011°06'13410.0
2014-Sep-15 10:05N 56°48' E 011°54'612.2
2014-Sep-15 09:33N 56°54' E 012°00'1412.1
2014-Sep-15 08:23N 57°06' E 012°13'1 0.4
2014-Sep-15 05:22N 57°07' E 012°14'0 0.0
2014-Sep-15 04:28N 57°07' E 012°14'0 0.0
2014-Sep-15 03:28N 57°07' E 012°14'0 0.0
2014-Sep-15 02:29N 57°07' E 012°14'4 4.3
2014-Sep-15 01:33N 57°06' E 012°07'1211.5
2014-Sep-15 00:33N 57°14' E 011°53'1111.4
2014-Sep-14 23:33N 57°22' E 011°37'1111.5
2014-Sep-14 22:33N 57°29' E 011°20'1110.9
2014-Sep-14 21:33N 57°34' E 011°02'1111.4
2014-Sep-14 20:33N 57°39' E 010°44'4 2.0
2014-Sep-14 18:29N 57°41' E 010°37'0 0.1
2014-Sep-14 17:28N 57°41' E 010°37'7 7.3
2014-Sep-14 16:33N 57°47' E 010°43'22110.5
2014-Sep-13 19:33N 54°41' E 007°08'1313.0
2014-Sep-13 18:33N 54°29' E 007°15'1313.3
2014-Sep-13 17:33N 54°17' E 007°25'1313.1
2014-Sep-13 16:33N 54°05' E 007°35'1312.8
2014-Sep-13 15:33N 53°54' E 007°45'1211.9
2014-Sep-13 14:33N 53°50' E 008°04'1111.4
2014-Sep-13 13:33N 53°43' E 008°19'1010.3
2014-Sep-13 12:33N 53°35' E 008°31'2 2.4
2014-Sep-13 11:33N 53°33' E 008°34'0 0.3
2014-Sep-13 10:31N 53°34' E 008°34'0 0.0
2014-Sep-13 09:31N 53°34' E 008°34'0 0.0
2014-Sep-13 08:31N 53°34' E 008°34'0 0.0
2014-Sep-13 07:31N 53°34' E 008°34'0 0.0
2014-Sep-13 06:31N 53°34' E 008°34'0 0.0
2014-Sep-13 05:31N 53°34' E 008°34'0 0.0
2014-Sep-13 04:31N 53°34' E 008°34'0 0.0
2014-Sep-13 03:31N 53°34' E 008°34'  
Track history (hours):
 
Tides and Currents Weather Stations Pressure Air Temp Water Temp Dewpoint Dewpoint Depression Visibility Wind Speed Wind Dir Waves Ship Positions

Lifter

Last reported at 2014-Sep-23 03:30 UTC. Time now 2014-Sep-23 06:16 UTC.
Position N 53°55' E 007°52'.

Length 118 m; draft 4.7 m.

Type: Ship. MMSI: 305175000.

Date/timePositionNaut miles runAvg speedWind from/ knotsBaromVisibWave heightAir tempDewpointWater temp
2014-Sep-23 03:30N 53°55' E 007°52'1 1.0
2014-Sep-23 02:33N 53°55' E 007°53'1212.0
2014-Sep-23 01:32N 54°01' E 008°12'1414.2
2014-Sep-23 00:33N 53°58' E 008°35'1211.9
2014-Sep-22 23:34N 53°50' E 008°50'1111.1
2014-Sep-22 22:32N 53°54' E 009°09'2 1.7
2014-Sep-22 21:33N 53°55' E 009°11'9 7.7
2014-Sep-22 20:23N 54°03' E 009°18'66 7.5
2014-Sep-22 11:32N 54°36' E 010°57'1010.6
2014-Sep-22 10:33N 54°35' E 011°15'1110.9
2014-Sep-22 09:33N 54°30' E 011°32'1212.0
2014-Sep-22 08:33N 54°27' E 011°52'1211.5
2014-Sep-22 07:33N 54°29' E 012°11'1313.2
2014-Sep-22 06:33N 54°40' E 012°24'1313.4
2014-Sep-22 05:33N 54°48' E 012°43'1313.2
2014-Sep-22 04:33N 54°52' E 013°05'1312.7
2014-Sep-22 03:33N 54°56' E 013°26'1212.0
2014-Sep-22 02:33N 55°00' E 013°45'2512.5
2014-Sep-22 00:32N 55°15' E 014°21'1313.4
2014-Sep-21 23:33N 55°25' E 014°36'1312.8
2014-Sep-21 22:33N 55°33' E 014°54'2512.5
2014-Sep-21 20:33N 55°45' E 015°33'1412.9
2014-Sep-21 19:27N 55°52' E 015°55'1213.1
2014-Sep-21 18:32N 55°58' E 016°13'1413.2
2014-Sep-21 17:30N 56°05' E 016°34'  
2014-Sep-17 03:33N 57°12' E 019°10'2612.3
2014-Sep-17 01:28N 56°52' E 018°39'1212.4
2014-Sep-17 00:29N 56°44' E 018°22'1212.4
2014-Sep-16 23:30N 56°37' E 018°04'1212.5
2014-Sep-16 22:30N 56°30' E 017°46'2512.4
2014-Sep-16 20:27N 56°14' E 017°09'1112.3
2014-Sep-16 19:33N 56°07' E 016°54'5212.1
2014-Sep-16 15:17N 55°41' E 015°35'912.1
2014-Sep-16 14:32N 55°37' E 015°20'1212.0
2014-Sep-16 13:33N 55°31' E 015°02'1212.2
2014-Sep-16 12:33N 55°25' E 014°43'1212.0
2014-Sep-16 11:34N 55°17' E 014°28'1212.1
2014-Sep-16 10:33N 55°07' E 014°15'1212.0
2014-Sep-16 09:33N 55°00' E 013°58'1212.4
2014-Sep-16 08:33N 54°56' E 013°38'1211.9
2014-Sep-16 07:32N 54°51' E 013°19'1211.9
2014-Sep-16 06:33N 54°47' E 012°60'1211.8
2014-Sep-16 05:33N 54°41' E 012°42'1211.6
2014-Sep-16 04:33N 54°34' E 012°25'1110.7
2014-Sep-16 03:33N 54°26' E 012°13'1010.1
2014-Sep-16 02:33N 54°25' E 011°56'1110.8
2014-Sep-16 01:33N 54°27' E 011°38'1111.0
2014-Sep-16 00:34N 54°32' E 011°21'1010.1
2014-Sep-15 23:33N 54°37' E 011°06'13410.0
2014-Sep-15 10:05N 56°48' E 011°54'612.2
2014-Sep-15 09:33N 56°54' E 012°00'1412.1
2014-Sep-15 08:23N 57°06' E 012°13'1 0.4
2014-Sep-15 05:22N 57°07' E 012°14'0 0.0
2014-Sep-15 04:28N 57°07' E 012°14'0 0.0
2014-Sep-15 03:28N 57°07' E 012°14'0 0.0
2014-Sep-15 02:29N 57°07' E 012°14'4 4.3
2014-Sep-15 01:33N 57°06' E 012°07'1211.5
2014-Sep-15 00:33N 57°14' E 011°53'1111.4
2014-Sep-14 23:33N 57°22' E 011°37'1111.5
2014-Sep-14 22:33N 57°29' E 011°20'1110.9
2014-Sep-14 21:33N 57°34' E 011°02'1111.4
2014-Sep-14 20:33N 57°39' E 010°44'4 2.0
2014-Sep-14 18:29N 57°41' E 010°37'0 0.1
2014-Sep-14 17:28N 57°41' E 010°37'7 7.3
2014-Sep-14 16:33N 57°47' E 010°43'22110.5
2014-Sep-13 19:33N 54°41' E 007°08'1313.0
2014-Sep-13 18:33N 54°29' E 007°15'1313.3
2014-Sep-13 17:33N 54°17' E 007°25'1313.1
2014-Sep-13 16:33N 54°05' E 007°35'1312.8
2014-Sep-13 15:33N 53°54' E 007°45'1211.9
2014-Sep-13 14:33N 53°50' E 008°04'1111.4
2014-Sep-13 13:33N 53°43' E 008°19'1010.3
2014-Sep-13 12:33N 53°35' E 008°31'2 2.4
2014-Sep-13 11:33N 53°33' E 008°34'0 0.3
2014-Sep-13 10:31N 53°34' E 008°34'0 0.0
2014-Sep-13 09:31N 53°34' E 008°34'0 0.0
2014-Sep-13 08:31N 53°34' E 008°34'0 0.0
2014-Sep-13 07:31N 53°34' E 008°34'0 0.0
2014-Sep-13 06:31N 53°34' E 008°34'0 0.0
2014-Sep-13 05:31N 53°34' E 008°34'0 0.0
2014-Sep-13 04:31N 53°34' E 008°34'0 0.0
2014-Sep-13 03:31N 53°34' E 008°34'  

Dump ship's entire track history